Time;durP1;ratioP1;P1;durP2;ratioP2;P2;SDS_P1;SDS_P2;PMS_P1;PMS_P2;Temp;Humidity;BMP_temperature;BMP_pressure;BME280_temperature;BME280_humidity;BME280_pressure;Samples;Min_cycle;Max_cycle;Signal;HPM_P1;HPM_P2
2023/02/15 00:01:48;;;;;;;40.22;27.65;;;;;;;4.48;89.76;102456.69;5025945;28;20049;-64
2023/02/15 00:04:18;;;;;;;41.72;26.63;;;;;;;4.46;89.63;102461.06;5025081;28;20084;-62
2023/02/15 00:06:46;;;;;;;45.55;29.42;;;;;;;4.42;89.15;102461.94;5027462;28;20506;-59
2023/02/15 00:09:13;;;;;;;40.17;27.23;;;;;;;4.39;89.76;102461.94;5025005;28;20473;-61
2023/02/15 00:11:42;;;;;;;41.88;27.08;;;;;;;4.39;89.45;102466.28;5027910;28;20103;-60
2023/02/15 00:14:11;;;;;;;39.58;27.42;;;;;;;4.39;89.73;102464.56;5024391;28;20103;-63
2023/02/15 00:16:40;;;;;;;40.80;27.58;;;;;;;4.39;89.64;102461.94;5025804;28;20164;-61
2023/02/15 00:19:08;;;;;;;43.42;26.98;;;;;;;4.37;90.10;102457.59;5021867;28;20133;-60
2023/02/15 00:21:36;;;;;;;40.53;27.65;;;;;;;4.36;89.42;102453.25;5024101;28;20148;-65
2023/02/15 00:24:05;;;;;;;41.53;27.15;;;;;;;4.35;89.93;102446.31;5020693;28;20479;-61
2023/02/15 00:26:32;;;;;;;39.70;26.70;;;;;;;4.34;90.41;102442.84;5023724;28;20140;-61
2023/02/15 00:29:00;;;;;;;42.40;28.55;;;;;;;4.33;90.34;102438.50;5024727;28;20053;-60
2023/02/15 00:31:30;;;;;;;41.45;29.40;;;;;;;4.32;90.14;102440.25;5025411;28;20140;-61
2023/02/15 00:34:04;;;;;;;43.58;28.23;;;;;;;4.31;90.55;102437.63;5026544;28;20462;-59
2023/02/15 00:36:32;;;;;;;43.60;28.67;;;;;;;4.26;89.91;102435.03;5029964;28;20050;-62
2023/02/15 00:38:59;;;;;;;41.15;27.83;;;;;;;4.25;90.85;102430.72;5034844;28;20132;-63
2023/02/15 00:41:26;;;;;;;41.67;29.00;;;;;;;4.24;90.40;102430.72;5039534;28;20088;-61
2023/02/15 00:43:54;;;;;;;41.67;28.25;;;;;;;4.23;90.64;102434.19;5039444;28;20077;-61
2023/02/15 00:46:21;;;;;;;41.90;28.85;;;;;;;4.22;90.82;102433.31;5029110;28;20132;-61
2023/02/15 00:48:48;;;;;;;40.33;28.55;;;;;;;4.16;90.59;102435.09;5026151;28;20445;-61
2023/02/15 00:51:16;;;;;;;41.25;29.17;;;;;;;4.10;90.76;102438.59;5026142;28;20245;-60
2023/02/15 00:53:44;;;;;;;43.47;29.77;;;;;;;4.06;91.04;102436.88;5024372;28;20081;-61
2023/02/15 00:56:11;;;;;;;43.50;29.45;;;;;;;4.03;91.02;102437.72;5025434;28;20111;-62
2023/02/15 00:58:38;;;;;;;43.13;29.70;;;;;;;3.99;91.59;102433.41;5031239;28;20045;-61
2023/02/15 01:01:09;;;;;;;41.80;29.35;;;;;;;3.98;91.99;102438.63;5027350;28;20402;-59
2023/02/15 01:03:37;;;;;;;45.50;30.40;;;;;;;3.99;91.64;102436.00;5026871;28;20375;-62
2023/02/15 01:06:05;;;;;;;44.75;29.63;;;;;;;3.96;91.18;102433.44;5028441;28;20425;-61
2023/02/15 01:08:32;;;;;;;41.00;27.75;;;;;;;3.97;91.70;102429.94;5029527;28;20435;-59
2023/02/15 01:11:11;;;;;;;45.00;29.52;;;;;;;4.00;91.12;102429.03;5029252;28;20057;-59
2023/02/15 01:13:38;;;;;;;42.38;29.33;;;;;;;3.97;90.75;102422.13;5026884;28;20417;-59
2023/02/15 01:16:05;;;;;;;42.15;28.38;;;;;;;3.95;90.95;102413.44;5027328;28;20079;-60
2023/02/15 01:18:35;;;;;;;46.78;30.00;;;;;;;3.94;91.27;102416.06;5023415;28;20729;-61
2023/02/15 01:21:17;;;;;;;40.90;28.65;;;;;;;3.86;91.06;102408.25;5027303;28;20055;-61
2023/02/15 01:23:44;;;;;;;44.08;29.17;;;;;;;3.85;91.09;102405.66;5028589;28;20466;-61
2023/02/15 01:26:12;;;;;;;45.50;29.45;;;;;;;3.80;90.83;102401.31;5026806;28;20080;-62
2023/02/15 01:28:39;;;;;;;46.05;29.73;;;;;;;3.77;91.28;102397.84;5027086;28;20067;-61
2023/02/15 01:31:11;;;;;;;44.53;30.23;;;;;;;3.75;91.63;102397.84;5029647;28;20049;-61
2023/02/15 01:33:39;;;;;;;44.33;29.30;;;;;;;3.75;91.50;102397.84;5026862;28;20060;-61
2023/02/15 01:36:06;;;;;;;45.72;29.35;;;;;;;3.76;91.13;102391.78;5029916;28;20099;-60
2023/02/15 01:38:34;;;;;;;46.17;30.38;;;;;;;3.75;91.46;102390.03;5025410;28;20053;-59
2023/02/15 01:41:20;;;;;;;42.55;29.35;;;;;;;3.74;90.69;102395.28;5028272;28;20172;-60
2023/02/15 01:43:53;;;;;;;45.40;30.85;;;;;;;3.72;90.77;102386.56;5030843;28;20056;-61
2023/02/15 01:46:34;;;;;;;42.95;29.42;;;;;;;3.69;90.22;102379.66;5028837;28;20053;-62
2023/02/15 01:49:08;;;;;;;49.15;30.67;;;;;;;3.62;90.85;102371.84;5024757;28;20179;-58
2023/02/15 01:51:37;;;;;;;47.60;30.60;;;;;;;3.55;91.22;102374.44;5025024;28;20037;-62
2023/02/15 01:54:10;;;;;;;46.67;29.92;;;;;;;3.57;91.61;102373.59;5025594;28;20136;-58
2023/02/15 01:56:38;;;;;;;43.55;30.38;;;;;;;3.58;90.92;102372.72;5025053;28;20588;-61
2023/02/15 01:59:11;;;;;;;47.53;32.45;;;;;;;3.56;90.91;102362.31;5025447;28;20058;-61
2023/02/15 02:01:38;;;;;;;47.92;31.05;;;;;;;3.51;91.29;102359.72;5023140;28;20502;-60
2023/02/15 02:04:11;;;;;;;46.92;30.33;;;;;;;3.45;90.90;102357.09;5025169;28;20053;-60
2023/02/15 02:06:39;;;;;;;47.88;32.15;;;;;;;3.40;91.68;102350.19;5031395;28;20556;-59
2023/02/15 02:09:07;;;;;;;48.30;31.55;;;;;;;3.41;91.70;102351.91;5028268;28;20042;-62
2023/02/15 02:11:34;;;;;;;48.22;33.38;;;;;;;3.42;90.99;102344.13;5027029;28;20085;-60
2023/02/15 02:14:02;;;;;;;48.33;31.88;;;;;;;3.36;91.20;102348.44;5021693;28;20144;-62
2023/02/15 02:16:51;;;;;;;45.45;32.65;;;;;;;3.24;91.61;102341.50;5027963;28;20513;-59
2023/02/15 02:19:45;;;;;;;47.65;31.23;;;;;;;3.23;91.57;102340.66;5024550;28;20148;-63
2023/02/15 02:22:19;;;;;;;54.53;32.22;;;;;;;3.21;91.91;102346.75;5026758;28;20510;-61
2023/02/15 02:25:14;;;;;;;47.95;32.40;;;;;;;3.19;92.20;102336.31;5025749;28;20057;-61
2023/02/15 02:27:56;;;;;;;52.47;34.17;;;;;;;3.19;91.84;102343.25;5025505;28;20450;-58
2023/02/15 02:30:34;;;;;;;53.05;35.08;;;;;;;3.11;92.29;102339.78;5026816;28;20076;-61
2023/02/15 02:33:17;;;;;;;55.17;35.47;;;;;;;2.97;92.75;102338.09;5026586;28;20065;-59
2023/02/15 02:36:15;;;;;;;60.08;37.13;;;;;;;2.92;93.06;102332.00;5024309;28;20064;-61
2023/02/15 02:38:53;;;;;;;60.25;38.75;;;;;;;2.93;92.95;102325.94;5026254;28;20133;-60
2023/02/15 02:41:40;;;;;;;67.65;36.63;;;;;;;2.92;92.89;102315.53;5030118;28;20165;-62
2023/02/15 02:44:42;;;;;;;55.75;35.55;;;;;;;2.94;93.52;102319.88;5021620;28;20152;-61
2023/02/15 02:47:23;;;;;;;62.33;37.88;;;;;;;2.88;92.66;102322.47;5013737;28;20570;-62
2023/02/15 02:50:04;;;;;;;67.70;38.78;;;;;;;2.83;93.60;102320.72;5026776;28;20141;-59
2023/02/15 02:52:45;;;;;;;61.05;36.50;;;;;;;2.84;93.38;102320.75;5027617;28;20045;-61
2023/02/15 02:55:16;;;;;;;61.03;37.22;;;;;;;2.85;93.43;102317.28;5023953;28;20136;-61
2023/02/15 02:57:54;;;;;;;63.47;39.35;;;;;;;2.84;92.77;102312.94;5026936;28;20140;-61
2023/02/15 03:00:23;;;;;;;63.25;39.88;;;;;;;2.83;93.69;102307.72;5025766;28;20099;-61
2023/02/15 03:02:58;;;;;;;64.05;39.53;;;;;;;2.85;93.31;102306.00;5027248;28;20060;-60
2023/02/15 03:05:27;;;;;;;68.05;40.85;;;;;;;2.84;93.14;102307.75;5028169;28;20059;-61
2023/02/15 03:07:56;;;;;;;67.85;42.55;;;;;;;2.83;92.66;102310.31;5023476;28;20050;-61
2023/02/15 03:10:24;;;;;;;68.60;42.30;;;;;;;2.82;93.04;102303.38;5024404;28;20056;-60
2023/02/15 03:12:51;;;;;;;70.70;43.20;;;;;;;2.78;92.49;102302.50;5026830;28;20135;-61
2023/02/15 03:15:24;;;;;;;68.85;44.03;;;;;;;2.79;92.51;102299.03;5022506;28;20080;-58
2023/02/15 03:17:56;;;;;;;67.80;41.13;;;;;;;2.79;92.51;102304.25;5023388;28;20052;-60
2023/02/15 03:20:33;;;;;;;70.18;42.92;;;;;;;2.76;92.50;102299.94;5025962;28;20429;-59
2023/02/15 03:23:04;;;;;;;70.07;41.92;;;;;;;2.72;91.93;102298.19;5024479;28;20148;-60
2023/02/15 03:25:34;;;;;;;72.82;43.30;;;;;;;2.71;92.59;102296.47;5028183;28;20604;-58
2023/02/15 03:28:07;;;;;;;80.47;46.55;;;;;;;2.73;92.06;102301.66;5026498;28;20444;-60
2023/02/15 03:30:35;;;;;;;75.60;45.28;;;;;;;2.67;92.32;102291.25;5024946;28;20140;-62
2023/02/15 03:33:03;;;;;;;74.47;42.50;;;;;;;2.65;92.61;102279.97;5025188;28;20149;-60
2023/02/15 03:35:39;;;;;;;71.93;42.50;;;;;;;2.67;92.59;102292.13;5022735;28;20085;-60
2023/02/15 03:38:07;;;;;;;76.65;42.45;;;;;;;2.67;92.06;102281.72;5027259;28;20124;-57
2023/02/15 03:43:56;;;;;;;69.60;41.28;;;;;;;2.66;91.86;102280.00;5024552;28;20049;-61
2023/02/15 03:47:07;;;;;;;72.93;42.15;;;;;;;2.64;91.48;102283.44;5042238;28;20132;-62
2023/02/15 03:52:58;;;;;;;79.32;42.47;;;;;;;2.52;91.68;102280.00;5017796;28;20073;-60
2023/02/15 03:55:26;;;;;;;70.93;42.67;;;;;;;2.50;91.89;102273.91;5026818;28;20065;-61
2023/02/15 04:03:33;;;;;;;77.90;44.03;;;;;;;2.38;92.22;102268.69;5019745;28;20045;-62
2023/02/15 04:06:02;;;;;;;79.38;46.38;;;;;;;2.36;92.09;102264.38;5022197;28;20141;-64
2023/02/15 04:11:15;;;;;;;73.35;41.60;;;;;;;2.36;92.16;102262.63;5025923;28;20696;-61
2023/02/15 04:13:42;;;;;;;74.35;43.67;;;;;;;2.35;92.09;102268.69;5026346;28;20488;-58
2023/02/15 04:16:09;;;;;;;72.57;41.13;;;;;;;2.28;91.90;102259.16;5024147;28;20548;-62
2023/02/15 04:27:00;;;;;;;67.38;41.58;;;;;;;2.27;92.22;102252.22;5025573;28;20061;-61
2023/02/15 04:29:28;;;;;;;70.47;42.05;;;;;;;2.25;91.86;102251.34;5025194;28;20140;-60
2023/02/15 04:31:56;;;;;;;65.07;38.45;;;;;;;2.24;92.06;102247.00;5024412;28;20409;-62
2023/02/15 04:34:24;;;;;;;66.95;39.75;;;;;;;2.22;91.76;102247.03;5022082;28;20207;-61
2023/02/15 04:36:51;;;;;;;67.53;40.28;;;;;;;2.18;91.92;102249.63;5024426;28;20096;-61
2023/02/15 04:39:19;;;;;;;68.15;39.88;;;;;;;2.16;92.07;102243.53;5023666;28;20081;-62
2023/02/15 04:41:46;;;;;;;71.85;41.10;;;;;;;2.12;92.21;102247.88;5023164;28;20042;-63
2023/02/15 04:44:13;;;;;;;69.68;39.03;;;;;;;2.10;91.95;102246.13;5027383;28;20458;-59
2023/02/15 04:46:40;;;;;;;66.05;38.35;;;;;;;2.08;91.50;102240.94;5027467;28;20425;-63
2023/02/15 04:49:08;;;;;;;69.07;39.47;;;;;;;2.05;92.22;102230.53;5027892;28;20077;-59
2023/02/15 04:51:35;;;;;;;72.85;41.53;;;;;;;2.02;92.11;102230.50;5025363;28;20084;-61
2023/02/15 04:54:02;;;;;;;67.53;38.30;;;;;;;2.00;91.79;102227.06;5019269;28;20081;-61
2023/02/15 04:56:29;;;;;;;72.50;40.42;;;;;;;1.97;92.25;102222.72;5018218;28;20334;-62
2023/02/15 04:58:57;;;;;;;65.30;37.38;;;;;;;1.93;92.36;102213.19;5026316;28;20045;-60
2023/02/15 05:01:24;;;;;;;69.90;39.47;;;;;;;1.91;92.49;102211.47;5021125;28;20133;-60
2023/02/15 05:03:51;;;;;;;63.75;38.63;;;;;;;1.87;92.24;102212.31;5020536;28;20486;-63
2023/02/15 05:06:18;;;;;;;65.95;38.92;;;;;;;1.85;92.32;102207.13;5022456;28;20079;-60
2023/02/15 05:08:46;;;;;;;65.25;37.17;;;;;;;1.82;92.30;102208.84;5024768;28;20053;-59
2023/02/15 05:11:13;;;;;;;65.78;38.08;;;;;;;1.79;92.41;102207.09;5023529;28;20056;-58
2023/02/15 05:13:40;;;;;;;66.20;37.17;;;;;;;1.77;92.13;102196.72;5029871;28;20131;-63
2023/02/15 05:16:07;;;;;;;74.05;41.80;;;;;;;1.74;92.15;102198.44;5025062;28;20053;-62
2023/02/15 05:18:34;;;;;;;62.88;37.85;;;;;;;1.71;92.02;102195.81;5027487;28;20145;-59
2023/02/15 05:21:02;;;;;;;65.97;37.13;;;;;;;1.70;91.99;102197.53;5024372;28;20084;-62
2023/02/15 05:23:29;;;;;;;64.32;37.22;;;;;;;1.67;91.93;102200.16;5022431;28;20139;-63
2023/02/15 05:28:42;;;;;;;70.50;39.95;;;;;;;1.63;92.21;102192.34;5031319;28;20037;-61
2023/02/15 05:31:12;;;;;;;69.65;38.20;;;;;;;1.59;91.96;102196.66;5024074;28;20200;-61
2023/02/15 05:33:40;;;;;;;67.13;38.60;;;;;;;1.58;91.87;102194.94;5023139;28;20076;-62
2023/02/15 05:36:08;;;;;;;66.90;36.97;;;;;;;1.56;92.41;102188.84;5021838;28;20596;-60
2023/02/15 05:38:39;;;;;;;70.03;39.70;;;;;;;1.55;92.49;102194.91;5022380;28;20053;-62
2023/02/15 05:41:07;;;;;;;68.80;37.72;;;;;;;1.54;92.57;102192.31;5024696;28;20565;-60
2023/02/15 05:43:34;;;;;;;71.78;40.80;;;;;;;1.54;92.45;102195.78;5043621;28;20050;-59
2023/02/15 05:46:02;;;;;;;71.03;38.33;;;;;;;1.53;92.65;102194.03;5023851;28;20140;-59
2023/02/15 05:48:30;;;;;;;70.72;41.42;;;;;;;1.52;92.60;102187.09;5028285;28;20516;-60
2023/02/15 05:51:06;;;;;;;68.88;40.10;;;;;;;1.50;92.75;102184.53;5027792;28;20069;-59
2023/02/15 05:53:35;;;;;;;75.20;41.85;;;;;;;1.49;92.52;102182.78;5026549;28;20046;-58
2023/02/15 05:56:04;;;;;;;77.80;40.90;;;;;;;1.48;92.47;102177.56;5026280;28;20144;-60
2023/02/15 05:58:34;;;;;;;74.50;41.58;;;;;;;1.44;92.93;102179.31;5027510;28;20616;-60
2023/02/15 06:01:13;;;;;;;76.78;40.15;;;;;;;1.43;92.79;102179.28;5023107;28;20092;-61
2023/02/15 06:03:40;;;;;;;72.03;40.17;;;;;;;1.43;93.02;102184.47;5037693;28;20127;-61
2023/02/15 06:06:08;;;;;;;80.13;41.72;;;;;;;1.44;92.87;102191.41;5028511;28;20253;-60
2023/02/15 06:08:36;;;;;;;78.25;41.92;;;;;;;1.41;93.23;102184.47;5027618;28;20132;-61
2023/02/15 06:11:04;;;;;;;75.03;40.17;;;;;;;1.37;93.36;102187.06;5029260;28;20140;-61
2023/02/15 06:13:32;;;;;;;79.20;43.33;;;;;;;1.33;93.06;102181.00;5029089;28;20053;-62
2023/02/15 06:16:00;;;;;;;77.28;41.80;;;;;;;1.29;93.33;102179.25;5031195;28;20132;-61
2023/02/15 06:18:28;;;;;;;86.38;41.72;;;;;;;1.26;93.21;102174.91;5019562;28;20145;-61
2023/02/15 06:20:55;;;;;;;73.57;39.90;;;;;;;1.25;93.51;102180.94;5026647;28;20049;-63
2023/02/15 06:23:23;;;;;;;78.53;41.22;;;;;;;1.25;93.72;102178.34;5026192;28;20084;-60
2023/02/15 06:25:50;;;;;;;81.20;44.90;;;;;;;1.26;93.93;102180.13;5029409;28;20112;-59
2023/02/15 06:28:17;;;;;;;75.10;41.10;;;;;;;1.25;93.70;102177.50;5026330;28;20074;-62
2023/02/15 06:30:44;;;;;;;77.25;42.67;;;;;;;1.20;93.62;102181.78;5032837;28;20053;-61
2023/02/15 06:33:12;;;;;;;75.88;39.72;;;;;;;1.16;94.15;102180.03;5024527;28;20133;-59
2023/02/15 06:35:39;;;;;;;76.82;42.50;;;;;;;1.17;94.26;102180.06;5029364;28;20073;-58
2023/02/15 06:38:06;;;;;;;78.13;39.22;;;;;;;1.16;94.12;102172.25;5019006;28;20064;-60
2023/02/15 06:40:33;;;;;;;78.72;42.38;;;;;;;1.14;94.13;102174.84;5028475;28;20072;-59
2023/02/15 06:43:01;;;;;;;77.45;40.63;;;;;;;1.15;93.78;102178.31;5025458;28;20073;-60
2023/02/15 06:45:28;;;;;;;78.63;41.97;;;;;;;1.15;94.37;102168.81;5022241;28;20176;-61
2023/02/15 06:47:55;;;;;;;78.30;41.22;;;;;;;1.16;94.14;102165.34;5016999;28;20144;-61
2023/02/15 06:50:22;;;;;;;82.72;42.65;;;;;;;1.16;94.77;102161.88;5009301;28;20059;-59
2023/02/15 06:52:49;;;;;;;85.82;43.25;;;;;;;1.19;95.16;102174.88;5011768;28;20132;-57
2023/02/15 06:55:16;;;;;;;80.78;43.90;;;;;;;1.19;94.94;102173.16;5034527;28;20053;-62
2023/02/15 06:57:44;;;;;;;77.00;38.83;;;;;;;1.21;95.36;102170.56;5019667;28;20478;-59
2023/02/15 07:00:12;;;;;;;74.93;40.92;;;;;;;1.22;95.60;102174.91;5018101;28;20137;-61
2023/02/15 07:02:39;;;;;;;81.97;40.67;;;;;;;1.22;95.81;102165.38;5020489;28;20141;-61
2023/02/15 07:05:06;;;;;;;78.70;40.30;;;;;;;1.25;96.07;102156.72;5018090;28;20076;-61
2023/02/15 07:07:33;;;;;;;82.55;41.22;;;;;;;1.27;96.19;102160.22;5016027;28;20128;-62
2023/02/15 07:10:01;;;;;;;82.35;40.95;;;;;;;1.24;96.01;102161.06;5020378;28;20509;-60
2023/02/15 07:12:44;;;;;;;81.40;39.80;;;;;;;1.24;96.10;102160.19;5024359;28;20132;-60
2023/02/15 07:15:15;;;;;;;86.85;43.92;;;;;;;1.25;96.07;102161.91;5022016;28;20095;-61
2023/02/15 07:17:42;;;;;;;83.45;41.38;;;;;;;1.29;96.18;102158.47;5016151;28;20104;-61
2023/02/15 07:20:14;;;;;;;84.55;42.70;;;;;;;1.32;96.39;102152.44;5018867;28;20049;-59
2023/02/15 07:22:42;;;;;;;83.75;40.95;;;;;;;1.31;96.22;102155.91;5021215;28;20073;-60
2023/02/15 07:25:12;;;;;;;79.63;40.90;;;;;;;1.29;96.41;102149.84;5008830;28;20115;-59
2023/02/15 07:27:39;;;;;;;86.78;43.47;;;;;;;1.33;96.61;102149.00;5022521;28;20049;-60
2023/02/15 07:30:10;;;;;;;88.05;43.85;;;;;;;1.19;96.57;102135.97;5018743;28;20128;-61
2023/02/15 07:33:22;;;;;;;90.15;42.55;;;;;;;1.17;97.29;102145.44;5014306;28;20053;-61
2023/02/15 07:35:24;;;;;;;88.82;43.38;;;;;;;1.14;97.95;102140.28;5027785;28;20093;-59
2023/02/15 07:37:52;;;;;;;80.28;42.53;;;;;;;1.07;98.02;102133.31;5023495;28;20097;-60
2023/02/15 07:40:23;;;;;;;87.72;41.30;;;;;;;1.07;98.05;102139.38;5024510;28;20663;-62
2023/02/15 07:42:54;;;;;;;89.43;42.80;;;;;;;1.08;98.07;102129.84;5021166;28;20049;-61
2023/02/15 07:45:22;;;;;;;82.32;41.80;;;;;;;1.11;98.10;102127.28;5017637;28;20049;-61
2023/02/15 07:47:49;;;;;;;88.32;42.70;;;;;;;1.05;98.34;102128.13;5021718;28;20079;-62
2023/02/15 07:50:17;;;;;;;94.88;43.42;;;;;;;1.04;98.83;102123.81;5026292;28;20594;-63
2023/02/15 07:52:44;;;;;;;80.60;41.22;;;;;;;1.11;99.31;102122.97;5031828;28;20144;-64
2023/02/15 07:55:12;;;;;;;77.07;40.17;;;;;;;1.17;99.07;102119.50;5036625;28;20133;-62
2023/02/15 07:57:44;;;;;;;76.45;40.05;;;;;;;1.11;99.05;102116.91;5033147;28;20053;-62
2023/02/15 08:00:14;;;;;;;80.97;41.25;;;;;;;1.09;99.05;102109.13;5031119;28;20549;-60
2023/02/15 08:02:41;;;;;;;75.47;39.90;;;;;;;1.03;99.55;102109.09;5024878;28;20430;-60
2023/02/15 08:05:08;;;;;;;77.93;39.95;;;;;;;1.08;99.39;102107.41;5022453;28;20524;-60
2023/02/15 08:07:36;;;;;;;78.35;40.83;;;;;;;1.15;99.47;102103.97;5025562;28;20383;-61
2023/02/15 08:10:03;;;;;;;82.72;40.00;;;;;;;1.22;99.80;102108.31;5019558;28;20050;-60
2023/02/15 08:12:30;;;;;;;83.05;42.38;;;;;;;1.26;99.52;102111.75;5018407;28;20049;-60
2023/02/15 08:14:58;;;;;;;79.57;39.60;;;;;;;1.21;99.02;102113.47;5021772;28;20124;-62
2023/02/15 08:17:25;;;;;;;81.55;41.90;;;;;;;1.15;99.33;102114.34;5014606;28;20585;-61
2023/02/15 08:19:52;;;;;;;79.15;40.92;;;;;;;1.09;99.66;102113.47;5015687;28;20140;-62
2023/02/15 08:22:20;;;;;;;83.57;40.60;;;;;;;1.12;100.00;102119.50;5019074;28;20138;-60
2023/02/15 08:24:47;;;;;;;87.53;44.22;;;;;;;1.18;99.93;102116.94;5017534;28;20144;-61
2023/02/15 08:27:14;;;;;;;81.90;41.25;;;;;;;1.20;99.78;102110.03;5019458;28;20163;-62
2023/02/15 08:29:42;;;;;;;89.65;42.63;;;;;;;1.27;99.64;102114.38;5024196;28;20199;-60
2023/02/15 08:32:11;;;;;;;86.65;40.45;;;;;;;1.29;99.80;102113.50;5023033;28;20474;-61
2023/02/15 08:34:40;;;;;;;85.18;41.88;;;;;;;1.33;99.50;102110.06;5019491;28;20570;-61
2023/02/15 08:37:09;;;;;;;94.53;39.53;;;;;;;1.31;99.50;102102.28;5021476;28;20103;-62
2023/02/15 08:39:36;;;;;;;80.22;40.75;;;;;;;1.25;99.71;102097.06;5023164;28;20140;-61
2023/02/15 08:42:04;;;;;;;91.70;39.65;;;;;;;1.21;99.79;102103.97;5023232;28;20112;-61
2023/02/15 08:44:31;;;;;;;85.32;41.55;;;;;;;1.21;100.00;102098.78;5015704;28;20059;-61
2023/02/15 08:47:03;;;;;;;81.13;42.28;;;;;;;1.26;100.00;102096.19;5021841;28;20075;-62
2023/02/15 08:49:30;;;;;;;85.90;42.20;;;;;;;1.30;100.00;102086.69;5024901;28;20129;-60
2023/02/15 08:51:57;;;;;;;93.25;43.17;;;;;;;1.32;100.00;102077.22;5020871;28;20140;-62
2023/02/15 08:54:25;;;;;;;83.80;41.85;;;;;;;1.31;100.00;102084.13;5026923;28;20129;-61
2023/02/15 08:56:52;;;;;;;82.72;42.08;;;;;;;1.36;100.00;102081.56;5029355;28;20092;-61
2023/02/15 08:59:21;;;;;;;92.57;42.92;;;;;;;1.41;100.00;102075.50;5024089;28;20521;-61
2023/02/15 09:01:50;;;;;;;72.88;38.60;;;;;;;1.49;100.00;102072.94;5027861;28;20534;-61
2023/02/15 09:04:19;;;;;;;81.53;41.03;;;;;;;1.53;100.00;102064.25;5026773;28;20125;-61
2023/02/15 09:06:47;;;;;;;81.43;40.70;;;;;;;1.56;99.68;102068.59;5027436;28;20045;-60
2023/02/15 09:09:16;;;;;;;80.10;40.97;;;;;;;1.58;99.52;102061.69;5026334;28;20425;-60
2023/02/15 09:11:46;;;;;;;75.18;37.88;;;;;;;1.64;100.00;102059.09;5026557;28;20589;-60
2023/02/15 09:14:19;;;;;;;77.55;40.60;;;;;;;1.68;100.00;102066.88;5028066;28;20128;-60
2023/02/15 09:16:51;;;;;;;87.35;41.58;;;;;;;1.76;99.83;102072.97;5025742;28;20128;-61
2023/02/15 09:19:20;;;;;;;79.90;39.80;;;;;;;1.79;99.81;102069.47;5027095;28;20140;-60
2023/02/15 09:21:48;;;;;;;71.13;38.78;;;;;;;1.86;100.00;102066.03;5027794;28;20136;-60
2023/02/15 09:24:16;;;;;;;83.68;40.03;;;;;;;1.94;99.54;102066.91;5027737;28;20148;-60
2023/02/15 09:26:45;;;;;;;70.63;38.08;;;;;;;1.94;99.17;102066.91;5024218;28;20433;-60
2023/02/15 09:29:13;;;;;;;75.40;38.35;;;;;;;2.00;98.59;102068.63;5026060;28;20128;-58
2023/02/15 09:31:44;;;;;;;75.45;38.33;;;;;;;2.03;99.21;102060.84;5027303;28;20128;-59
2023/02/15 09:34:13;;;;;;;68.80;37.35;;;;;;;2.00;99.05;102063.44;5026487;28;20053;-59
2023/02/15 09:36:40;;;;;;;66.03;35.55;;;;;;;2.06;99.21;102075.53;5027340;28;20067;-59
2023/02/15 09:39:13;;;;;;;70.07;38.03;;;;;;;2.12;99.29;102065.16;5028184;28;20156;-57
2023/02/15 09:41:58;;;;;;;72.78;38.10;;;;;;;2.19;99.18;102072.94;5023095;28;20071;-61
2023/02/15 09:45:03;;;;;;;73.13;35.92;;;;;;;2.23;99.13;102073.81;5020049;28;20046;-59
2023/02/15 09:47:56;;;;;;;64.90;35.15;;;;;;;2.31;98.84;102077.25;5024678;28;20125;-60
2023/02/15 09:50:35;;;;;;;64.78;35.85;;;;;;;2.43;99.32;102077.25;5013528;28;20141;-57
2023/02/15 09:53:14;;;;;;;66.00;35.83;;;;;;;2.52;98.67;102078.94;5022467;28;20067;-59
2023/02/15 09:55:45;;;;;;;68.50;37.67;;;;;;;2.46;98.31;102063.34;5021275;28;20051;-62
2023/02/15 09:58:27;;;;;;;68.72;36.45;;;;;;;2.50;98.52;102063.34;5023009;28;20136;-60
2023/02/15 10:01:34;;;;;;;64.25;36.10;;;;;;;2.51;98.21;102066.81;5023383;28;20063;-62
2023/02/15 10:04:27;;;;;;;67.03;37.05;;;;;;;2.58;97.96;102070.28;5025622;28;20057;-61
2023/02/15 10:07:11;;;;;;;67.07;36.13;;;;;;;2.61;98.54;102062.44;5021999;28;20049;-62
2023/02/15 10:09:46;;;;;;;66.03;35.67;;;;;;;2.68;98.80;102057.22;5023767;28;20140;-59
2023/02/15 10:12:27;;;;;;;66.70;36.45;;;;;;;2.76;98.31;102059.81;5023636;28;20053;-60
2023/02/15 10:15:11;;;;;;;59.40;33.72;;;;;;;2.83;98.59;102060.63;5023434;28;20141;-62
2023/02/15 10:18:00;;;;;;;51.30;31.10;;;;;;;2.94;97.64;102066.69;5026146;28;20140;-61
2023/02/15 10:21:02;;;;;;;57.30;32.95;;;;;;;3.05;97.34;102054.47;5025847;28;20053;-59
2023/02/15 10:23:32;;;;;;;55.92;30.58;;;;;;;3.10;97.61;102039.69;5024644;28;20493;-59
2023/02/15 10:26:17;;;;;;;50.00;30.42;;;;;;;3.26;97.52;102035.28;5025655;28;20118;-60
2023/02/15 10:28:56;;;;;;;56.15;33.15;;;;;;;3.35;97.48;102040.44;5025913;28;20053;-60
2023/02/15 10:31:31;;;;;;;53.15;32.70;;;;;;;3.50;96.88;102039.47;5021333;28;20058;-59
2023/02/15 10:34:18;;;;;;;61.22;34.28;;;;;;;3.58;95.62;102026.38;5024843;28;20454;-60
2023/02/15 10:36:48;;;;;;;59.42;34.60;;;;;;;3.68;95.82;102028.03;5025999;28;21496;-59
2023/02/15 10:39:38;;;;;;;58.85;32.88;;;;;;;3.74;95.10;102023.66;5026472;28;20204;-60
2023/02/15 10:42:40;;;;;;;58.53;31.83;;;;;;;3.79;95.17;102016.66;5022274;28;20060;-61
2023/02/15 10:45:18;;;;;;;54.97;30.75;;;;;;;3.89;95.01;102020.06;5002962;28;20081;-58
2023/02/15 10:48:09;;;;;;;61.72;33.63;;;;;;;3.96;94.61;102023.44;5022706;28;20053;-60
2023/02/15 10:50:45;;;;;;;52.08;31.88;;;;;;;4.01;93.86;102014.75;5022461;28;20049;-60
2023/02/15 10:53:50;;;;;;;54.33;32.20;;;;;;;4.11;94.19;102012.03;5023473;28;20560;-59
2023/02/15 10:56:26;;;;;;;51.10;30.85;;;;;;;4.23;94.00;102006.69;5026626;28;20117;-60
2023/02/15 10:58:53;;;;;;;55.05;32.25;;;;;;;4.41;93.69;102010.84;5004581;28;20045;-61
2023/02/15 11:01:35;;;;;;;56.55;32.58;;;;;;;4.42;92.74;102009.97;5025236;28;20695;-61
2023/02/15 11:04:39;;;;;;;53.13;30.80;;;;;;;4.42;92.08;102003.00;5031278;28;20053;-61
2023/02/15 11:07:14;;;;;;;51.50;31.33;;;;;;;4.56;91.80;102000.25;5022758;28;20049;-62
2023/02/15 11:09:45;;;;;;;54.08;33.20;;;;;;;4.70;91.55;101998.31;5021669;28;20151;-61
2023/02/15 11:12:22;;;;;;;54.03;32.65;;;;;;;4.79;90.54;101992.97;5024136;28;20069;-58
2023/02/15 11:14:57;;;;;;;53.25;30.92;;;;;;;4.98;90.74;101982.28;5024761;28;20148;-61
2023/02/15 11:17:29;;;;;;;49.28;31.30;;;;;;;5.13;89.01;101981.22;5023072;28;20136;-61
2023/02/15 11:20:19;;;;;;;49.65;29.65;;;;;;;5.30;88.77;101973.97;5023022;28;20061;-61
2023/02/15 11:22:50;;;;;;;47.05;29.67;;;;;;;5.54;88.20;101981.44;5025592;28;20660;-61
2023/02/15 11:25:21;;;;;;;55.03;31.60;;;;;;;5.80;87.07;101977.50;5024891;28;20055;-60
2023/02/15 11:27:49;;;;;;;47.17;28.35;;;;;;;5.99;86.56;101972.84;5036827;28;20049;-60
2023/02/15 11:30:22;;;;;;;48.42;29.40;;;;;;;6.21;86.05;101982.00;5024894;28;20103;-61
2023/02/15 11:32:58;;;;;;;48.08;28.42;;;;;;;6.30;83.94;101978.34;5026067;28;20142;-62
2023/02/15 11:35:32;;;;;;;46.28;28.10;;;;;;;6.47;84.64;101967.56;5006895;28;20596;-60
2023/02/15 11:38:16;;;;;;;42.60;26.33;;;;;;;6.67;83.79;101967.19;5024332;28;20053;-61
2023/02/15 11:40:56;;;;;;;38.25;25.27;;;;;;;6.90;81.82;101959.69;5023818;28;20498;-60
2023/02/15 11:43:40;;;;;;;34.95;23.05;;;;;;;7.04;81.63;101951.50;5023801;28;20051;-62
2023/02/15 11:46:08;;;;;;;40.40;25.98;;;;;;;7.29;80.11;101951.78;5025689;28;20156;-61
2023/02/15 11:48:39;;;;;;;43.65;28.38;;;;;;;7.55;79.35;101941.53;5022738;28;20057;-62
2023/02/15 11:51:12;;;;;;;37.65;24.15;;;;;;;7.70;78.68;101942.91;5024285;28;20566;-61
2023/02/15 11:53:39;;;;;;;40.35;25.15;;;;;;;7.87;77.39;101942.44;5023829;28;20148;-61
2023/02/15 11:56:14;;;;;;;39.80;25.10;;;;;;;8.10;76.92;101947.94;5025341;28;20144;-61
2023/02/15 11:58:43;;;;;;;41.63;26.42;;;;;;;8.33;76.94;101947.31;5025739;28;20120;-60
2023/02/15 12:01:34;;;;;;;46.05;26.95;;;;;;;8.57;74.18;101940.50;5024735;28;20042;-61
2023/02/15 12:04:13;;;;;;;38.63;24.40;;;;;;;8.85;73.57;101944.94;5020558;28;20061;-61
2023/02/15 12:06:51;;;;;;;34.40;22.05;;;;;;;9.18;72.55;101944.78;5024555;28;20068;-61